Wetterstation Vordersexau
Wetterdaten: Woche 28.03.16 - 03.04.16 (KW13)
Datum Zeit Temp. A. Feuchte A. Luftdruck Regen Wind Richtung Taupunkt Windchill Windben
28.03.2016 00:00 2,8 C 84 % 1010,9 hPa 0,0 l/m 0,0 km/h O-NO 0,4 C 2,8 C 0,0 km/h
28.03.2016 01:00 2,3 C 85 % 1010,2 hPa 0,0 l/m 0,0 km/h O-SO 0,0 C 2,3 C 0,0 km/h
28.03.2016 02:00 2,4 C 86 % 1009,4 hPa 0,0 l/m 0,0 km/h SO 0,3 C 2,4 C 0,0 km/h
28.03.2016 03:00 2,2 C 86 % 1008,1 hPa 0,0 l/m 11,0 km/h O-NO 0,1 C -1,8 C 6,1 km/h
28.03.2016 04:00 2,6 C 86 % 1007,4 hPa 0,0 l/m 0,0 km/h SO 0,5 C 2,6 C 0,0 km/h
28.03.2016 05:00 2,5 C 85 % 1006,8 hPa 0,0 l/m 0,0 km/h O-SO 0,2 C 2,5 C 0,0 km/h
28.03.2016 06:00 1,9 C 86 % 1006,3 hPa 0,0 l/m 0,0 km/h O-SO -0,2 C 1,9 C 0,0 km/h
28.03.2016 07:00 2,6 C 86 % 1005,7 hPa 0,0 l/m 0,0 km/h NO 0,5 C 2,6 C 0,0 km/h
28.03.2016 08:00 4,1 C 85 % 1005,4 hPa 0,0 l/m 0,0 km/h O-NO 1,8 C 4,1 C 0,0 km/h
28.03.2016 09:00 7,2 C 83 % 1005,1 hPa 0,0 l/m 0,0 km/h W-NW 4,5 C 7,2 C 0,0 km/h
28.03.2016 10:00 7,4 C 81 % 1005,7 hPa 0,0 l/m 0,0 km/h W-NW 4,4 C 7,4 C 0,0 km/h
28.03.2016 11:00 9,9 C 68 % 1005,9 hPa 0,0 l/m 24,0 km/h S-SW 4,3 C 2,0 C 13,3 km/h
28.03.2016 12:00 13,1 C 61 % 1005,2 hPa 0,0 l/m 16,8 km/h SW 5,8 C 8,3 C 9,4 km/h
28.03.2016 13:00 13,8 C 62 % 1004,5 hPa 0,0 l/m 13,6 km/h W-SW 6,6 C 10,2 C 7,6 km/h
28.03.2016 14:00 17,3 C 54 % 1003,5 hPa 0,0 l/m 19,4 km/h SW 7,9 C 12,9 C 10,8 km/h
28.03.2016 15:00 16,8 C 56 % 1002,7 hPa 0,0 l/m 20,7 km/h SW 8,0 C 11,9 C 11,5 km/h
28.03.2016 16:00 15,9 C 54 % 1002,1 hPa 0,0 l/m 19,4 km/h SW 6,6 C 11,1 C 10,8 km/h
28.03.2016 17:00 15,8 C 52 % 1001,5 hPa 0,0 l/m 25,3 km/h W-SW 6,0 C 9,6 C 14,0 km/h
28.03.2016 18:00 17,3 C 48 % 1001,5 hPa 0,0 l/m 27,2 km/h W-SW 6,2 C 11,4 C 15,1 km/h
28.03.2016 19:00 15,3 C 48 % 1001,9 hPa 0,0 l/m 39,5 km/h N 4,4 C 6,8 C 22,0 km/h
28.03.2016 20:00 14,6 C 55 % 1003,7 hPa 0,0 l/m 28,5 km/h S-SO 5,7 C 7,4 C 15,8 km/h
28.03.2016 21:00 9,0 C 80 % 1005,3 hPa 0,8 l/m 0,0 km/h W 5,7 C 9,0 C 0,0 km/h
28.03.2016 22:00 9,3 C 82 % 1006,3 hPa 0,4 l/m 3,2 km/h SW 6,4 C 9,3 C 1,8 km/h
28.03.2016 23:00 9,3 C 80 % 1005,4 hPa 0,0 l/m 7,8 km/h W-SW 6,0 C 8,3 C 4,3 km/h
29.03.2016 00:00 10,1 C 77 % 1005,8 hPa 0,0 l/m 11,0 km/h W-SW 6,3 C 7,1 C 6,1 km/h
29.03.2016 01:00 10,3 C 74 % 1007,1 hPa 0,0 l/m 7,8 km/h W-NW 5,9 C 9,3 C 4,3 km/h
29.03.2016 02:00 8,8 C 77 % 1007,4 hPa 0,0 l/m 0,0 km/h W-SW 5,0 C 8,8 C 0,0 km/h
29.03.2016 03:00 8,2 C 77 % 1008,0 hPa 0,0 l/m 0,0 km/h W 4,4 C 8,2 C 0,0 km/h
29.03.2016 04:00 8,3 C 78 % 1008,4 hPa 0,0 l/m 1,9 km/h W-NW 4,7 C 8,3 C 1,1 km/h
29.03.2016 05:00 7,6 C 76 % 1009,5 hPa 0,0 l/m 0,0 km/h W-SW 3,6 C 7,6 C 0,0 km/h
29.03.2016 06:00 5,9 C 78 % 1010,1 hPa 0,0 l/m 0,0 km/h W 2,4 C 5,9 C 0,0 km/h
29.03.2016 07:00 4,5 C 81 % 1010,7 hPa 0,0 l/m 0,0 km/h W 1,5 C 4,5 C 0,0 km/h
29.03.2016 08:00 7,8 C 76 % 1011,3 hPa 0,0 l/m 17,5 km/h W-SW 3,8 C 1,4 C 9,7 km/h
29.03.2016 09:00 12,3 C 61 % 1011,6 hPa 0,0 l/m 22,0 km/h SW 5,0 C 5,7 C 12,2 km/h
29.03.2016 10:00 12,9 C 55 % 1012,0 hPa 0,0 l/m 18,8 km/h S-SW 4,1 C 7,4 C 10,4 km/h
29.03.2016 11:00 14,3 C 54 % 1012,3 hPa 0,0 l/m 13,6 km/h W-NW 5,1 C 10,8 C 7,6 km/h
29.03.2016 12:00 15,6 C 50 % 1011,5 hPa 0,0 l/m 14,9 km/h W-SW 5,2 C 12,0 C 8,3 km/h
29.03.2016 13:00 16,7 C 47 % 1011,0 hPa 0,0 l/m 25,3 km/h W 5,3 C 10,9 C 14,0 km/h
29.03.2016 14:00 16,8 C 46 % 1010,6 hPa 0,0 l/m 18,8 km/h W-NW 5,1 C 12,4 C 10,4 km/h
29.03.2016 15:00 17,1 C 47 % 1010,5 hPa 0,0 l/m 27,9 km/h W 5,7 C 11,0 C 15,5 km/h
29.03.2016 16:00 18,8 C 45 % 1010,1 hPa 0,0 l/m 13,6 km/h W-SW 6,6 C 16,2 C 7,6 km/h
29.03.2016 17:00 15,9 C 48 % 1010,5 hPa 0,0 l/m 26,6 km/h SW 4,9 C 9,5 C 14,8 km/h
29.03.2016 18:00 13,4 C 52 % 1010,5 hPa 0,0 l/m 18,1 km/h S 3,7 C 8,2 C 10,1 km/h
29.03.2016 19:00 13,5 C 55 % 1011,0 hPa 0,0 l/m 7,8 km/h W-SW 4,6 C 12,6 C 4,3 km/h
29.03.2016 20:00 12,0 C 59 % 1011,3 hPa 0,0 l/m 0,0 km/h SW 4,2 C 12,0 C 0,0 km/h
29.03.2016 21:00 11,3 C 62 % 1011,8 hPa 0,0 l/m 10,4 km/h S-SW 4,3 C 8,8 C 5,8 km/h
29.03.2016 22:00 11,6 C 64 % 1011,6 hPa 0,0 l/m 9,1 km/h S 5,0 C 9,9 C 5,0 km/h
29.03.2016 23:00 11,1 C 67 % 1011,1 hPa 0,0 l/m 0,0 km/h S 5,2 C 11,1 C 0,0 km/h
30.03.2016 00:00 10,9 C 70 % 1010,8 hPa 0,0 l/m 0,0 km/h S 5,6 C 10,9 C 0,0 km/h
30.03.2016 01:00 10,3 C 73 % 1010,4 hPa 0,0 l/m 0,0 km/h NO 5,7 C 10,3 C 0,0 km/h
30.03.2016 02:00 9,6 C 77 % 1010,3 hPa 0,0 l/m 0,0 km/h O-NO 5,8 C 9,6 C 0,0 km/h
30.03.2016 03:00 9,8 C 80 % 1010,1 hPa 0,0 l/m 0,0 km/h S 6,5 C 9,8 C 0,0 km/h
30.03.2016 04:00 10,5 C 84 % 1009,8 hPa 0,4 l/m 6,5 km/h S-SW 7,9 C 10,5 C 3,6 km/h
30.03.2016 05:00 10,5 C 85 % 1009,3 hPa 0,4 l/m 0,0 km/h W-SW 8,1 C 10,5 C 0,0 km/h
30.03.2016 06:00 11,5 C 84 % 1009,3 hPa 0,0 l/m 0,0 km/h SW 8,9 C 11,5 C 0,0 km/h
30.03.2016 07:00 11,3 C 83 % 1009,4 hPa 0,0 l/m 11,0 km/h SW 8,5 C 8,5 C 6,1 km/h
30.03.2016 08:00 12,4 C 79 % 1009,7 hPa 0,0 l/m 11,7 km/h S 8,9 C 9,4 C 6,5 km/h
30.03.2016 09:00 12,7 C 77 % 1010,0 hPa 0,0 l/m 20,1 km/h W 8,8 C 6,7 C 11,2 km/h
30.03.2016 10:00 12,1 C 81 % 1010,6 hPa 0,0 l/m 12,3 km/h W-SW 8,9 C 8,8 C 6,8 km/h
30.03.2016 11:00 11,3 C 85 % 1011,3 hPa 0,8 l/m 0,0 km/h S-SW 8,9 C 11,3 C 0,0 km/h
30.03.2016 12:00 12,0 C 85 % 1011,3 hPa 0,0 l/m 0,0 km/h SW 9,6 C 12,0 C 0,0 km/h
30.03.2016 13:00 13,9 C 80 % 1011,0 hPa 0,0 l/m 5,2 km/h W 10,5 C 13,9 C 2,9 km/h
30.03.2016 14:00 15,8 C 72 % 1010,7 hPa 0,0 l/m 22,7 km/h NW 10,8 C 10,2 C 12,6 km/h
30.03.2016 15:00 12,6 C 82 % 1010,8 hPa 1,7 l/m 0,0 km/h SO 9,6 C 12,6 C 0,0 km/h
30.03.2016 16:00 15,1 C 82 % 1010,2 hPa 0,0 l/m 0,0 km/h O-NO 12,0 C 15,1 C 0,0 km/h
30.03.2016 17:00 15,5 C 80 % 1009,5 hPa 0,0 l/m 0,0 km/h NO 12,1 C 15,5 C 0,0 km/h
30.03.2016 18:00 16,4 C 74 % 1009,1 hPa 0,0 l/m 0,0 km/h O-SO 11,8 C 16,4 C 0,0 km/h
30.03.2016 19:00 12,8 C 82 % 1008,6 hPa 0,0 l/m 0,0 km/h SO 9,8 C 12,8 C 0,0 km/h
30.03.2016 20:00 11,1 C 85 % 1008,6 hPa 0,0 l/m 0,0 km/h SO 8,7 C 11,1 C 0,0 km/h
30.03.2016 21:00 10,2 C 86 % 1008,8 hPa 0,4 l/m 0,0 km/h O-SO 8,0 C 10,2 C 0,0 km/h
30.03.2016 22:00 8,8 C 87 % 1008,5 hPa 0,0 l/m 7,8 km/h O-SO 6,8 C 7,7 C 4,3 km/h
30.03.2016 23:00 8,1 C 87 % 1008,5 hPa 0,0 l/m 0,0 km/h NO 6,1 C 8,1 C 0,0 km/h
31.03.2016 00:00 7,2 C 87 % 1008,4 hPa 0,0 l/m 0,0 km/h NO 5,2 C 7,2 C 0,0 km/h
31.03.2016 01:00 6,7 C 87 % 1008,8 hPa 0,0 l/m 0,0 km/h NO 4,7 C 6,7 C 0,0 km/h
31.03.2016 02:00 7,4 C 86 % 1008,8 hPa 0,0 l/m 0,0 km/h NO 5,2 C 7,4 C 0,0 km/h
31.03.2016 03:00 5,9 C 87 % 1008,2 hPa 0,0 l/m 0,0 km/h NO 3,9 C 5,9 C 0,0 km/h
31.03.2016 04:00 5,6 C 86 % 1008,0 hPa 0,0 l/m 0,0 km/h NO 3,4 C 5,6 C 0,0 km/h
31.03.2016 05:00 4,9 C 86 % 1007,6 hPa 0,0 l/m 0,0 km/h NO 2,8 C 4,9 C 0,0 km/h
31.03.2016 06:00 5,3 C 86 % 1007,3 hPa 0,0 l/m 0,0 km/h NO 3,2 C 5,3 C 0,0 km/h
31.03.2016 07:00 4,9 C 86 % 1007,1 hPa 0,0 l/m 0,0 km/h NO 2,8 C 4,9 C 0,0 km/h
31.03.2016 08:00 6,9 C 82 % 1006,9 hPa 0,0 l/m 0,0 km/h N-NO 4,0 C 6,9 C 0,0 km/h
31.03.2016 09:00 12,5 C 85 % 1006,5 hPa 0,0 l/m 0,0 km/h N-NW 10,0 C 12,5 C 0,0 km/h
31.03.2016 10:00 13,5 C 78 % 1005,9 hPa 0,0 l/m 7,8 km/h W-NW 9,7 C 12,6 C 4,3 km/h
31.03.2016 11:00 13,6 C 80 % 1005,8 hPa 0,0 l/m 0,0 km/h W-NW 10,2 C 13,6 C 0,0 km/h
31.03.2016 12:00 14,8 C 76 % 1005,3 hPa 0,0 l/m 0,0 km/h W-NW 10,6 C 14,8 C 0,0 km/h
31.03.2016 13:00 17,2 C 73 % 1004,9 hPa 0,0 l/m 0,0 km/h N 12,3 C 17,2 C 0,0 km/h
31.03.2016 14:00 17,9 C 69 % 1003,6 hPa 0,0 l/m 0,0 km/h W 12,1 C 17,9 C 0,0 km/h
31.03.2016 15:00 14,9 C 79 % 1004,4 hPa 0,0 l/m 3,9 km/h N-NO 11,3 C 14,9 C 2,2 km/h
31.03.2016 16:00 16,3 C 81 % 1003,4 hPa 0,0 l/m 0,0 km/h NO 13,0 C 16,3 C 0,0 km/h
31.03.2016 17:00 22,3 C 63 % 1002,4 hPa 0,0 l/m 0,0 km/h W-NW 14,9 C 22,3 C 0,0 km/h
31.03.2016 18:00 14,9 C 78 % 1002,5 hPa 0,0 l/m 5,2 km/h W-NW 11,1 C 14,9 C 2,9 km/h
31.03.2016 19:00 13,1 C 84 % 1002,9 hPa 0,0 l/m 0,0 km/h S-SO 10,5 C 13,1 C 0,0 km/h
31.03.2016 20:00 12,2 C 86 % 1002,9 hPa 0,0 l/m 7,8 km/h W-SW 9,9 C 11,3 C 4,3 km/h
31.03.2016 21:00 11,1 C 86 % 1002,5 hPa 0,0 l/m 0,0 km/h N-NO 8,8 C 11,1 C 0,0 km/h
31.03.2016 22:00 10,1 C 87 % 1002,4 hPa 0,0 l/m 0,0 km/h W-NW 8,0 C 10,1 C 0,0 km/h
31.03.2016 23:00 10,5 C 85 % 1003,3 hPa 0,0 l/m 0,0 km/h W-NW 8,1 C 10,5 C 0,0 km/h
01.04.2016 00:00 10,6 C 85 % 1004,3 hPa 0,0 l/m 0,0 km/h SO 8,2 C 10,6 C 0,0 km/h
01.04.2016 01:00 9,9 C 85 % 1005,5 hPa 0,0 l/m 9,7 km/h W 7,5 C 7,7 C 5,4 km/h
01.04.2016 02:00 9,0 C 84 % 1007,1 hPa 0,0 l/m 3,2 km/h W-NW 6,4 C 9,0 C 1,8 km/h
01.04.2016 03:00 7,9 C 83 % 1008,0 hPa 0,0 l/m 2,6 km/h NW 5,2 C 7,9 C 1,4 km/h
01.04.2016 04:00 7,6 C 83 % 1009,0 hPa 0,0 l/m 1,9 km/h W-NW 4,9 C 7,6 C 1,1 km/h
01.04.2016 05:00 7,2 C 82 % 1009,6 hPa 0,4 l/m 0,0 km/h W-NW 4,3 C 7,2 C 0,0 km/h
01.04.2016 06:00 7,1 C 82 % 1010,6 hPa 0,0 l/m 0,0 km/h W-NW 4,2 C 7,1 C 0,0 km/h
01.04.2016 07:00 6,8 C 82 % 1011,9 hPa 0,0 l/m 2,6 km/h W-NW 3,9 C 6,8 C 1,4 km/h
01.04.2016 08:00 6,8 C 81 % 1012,8 hPa 0,0 l/m 0,0 km/h W-NW 3,8 C 6,8 C 0,0 km/h
01.04.2016 09:00 7,3 C 82 % 1013,7 hPa 0,0 l/m 1,9 km/h N-NW 4,4 C 7,3 C 1,1 km/h
01.04.2016 10:00 7,8 C 87 % 1014,9 hPa 0,0 l/m 3,2 km/h W-NW 5,8 C 7,8 C 1,8 km/h
01.04.2016 11:00 8,5 C 88 % 1015,5 hPa 0,0 l/m 7,1 km/h W-NW 6,6 C 8,0 C 4,0 km/h
01.04.2016 12:00 11,3 C 84 % 1015,9 hPa 0,0 l/m 0,0 km/h W-NW 8,7 C 11,3 C 0,0 km/h
01.04.2016 13:00 11,3 C 78 % 1016,0 hPa 0,0 l/m 0,0 km/h N 7,6 C 11,3 C 0,0 km/h
01.04.2016 14:00 12,6 C 76 % 1016,0 hPa 0,0 l/m 0,0 km/h NW 8,5 C 12,6 C 0,0 km/h
01.04.2016 15:00 10,0 C 80 % 1015,9 hPa 0,0 l/m 0,0 km/h N-NW 6,7 C 10,0 C 0,0 km/h
01.04.2016 16:00 9,4 C 81 % 1016,2 hPa 0,0 l/m 0,0 km/h W-NW 6,3 C 9,4 C 0,0 km/h
01.04.2016 17:00 9,4 C 81 % 1015,9 hPa 0,0 l/m 1,3 km/h W-NW 6,3 C 9,4 C 0,7 km/h
01.04.2016 18:00 8,6 C 84 % 1016,3 hPa 0,0 l/m 1,9 km/h N 6,1 C 8,6 C 1,1 km/h
01.04.2016 19:00 8,4 C 85 % 1016,7 hPa 0,0 l/m 0,0 km/h N 6,0 C 8,4 C 0,0 km/h
01.04.2016 20:00 8,1 C 86 % 1017,1 hPa 0,0 l/m 0,0 km/h N 5,9 C 8,1 C 0,0 km/h
01.04.2016 21:00 6,9 C 86 % 1016,7 hPa 0,0 l/m 0,0 km/h N 4,7 C 6,9 C 0,0 km/h
01.04.2016 22:00 4,5 C 87 % 1016,4 hPa 0,0 l/m 0,0 km/h N 2,5 C 4,5 C 0,0 km/h
01.04.2016 23:00 4,9 C 87 % 1016,6 hPa 0,0 l/m 0,0 km/h N 2,9 C 4,9 C 0,0 km/h
02.04.2016 00:00 6,1 C 87 % 1017,3 hPa 0,0 l/m 0,0 km/h N 4,1 C 6,1 C 0,0 km/h
02.04.2016 01:00 6,3 C 87 % 1016,7 hPa 0,0 l/m 0,0 km/h W-SW 4,3 C 6,3 C 0,0 km/h
02.04.2016 02:00 5,9 C 88 % 1016,1 hPa 0,0 l/m 0,0 km/h SW 4,1 C 5,9 C 0,0 km/h
02.04.2016 03:00 4,8 C 88 % 1015,9 hPa 0,0 l/m 0,0 km/h SW 3,0 C 4,8 C 0,0 km/h
02.04.2016 04:00 5,2 C 87 % 1015,4 hPa 0,0 l/m 0,0 km/h SW 3,2 C 5,2 C 0,0 km/h
02.04.2016 05:00 4,9 C 87 % 1015,4 hPa 0,0 l/m 0,0 km/h NO 2,9 C 4,9 C 0,0 km/h
02.04.2016 06:00 5,6 C 87 % 1015,0 hPa 0,0 l/m 0,0 km/h NO 3,6 C 5,6 C 0,0 km/h
02.04.2016 07:00 5,9 C 87 % 1014,7 hPa 0,0 l/m 0,0 km/h NO 3,9 C 5,9 C 0,0 km/h
02.04.2016 08:00 6,6 C 86 % 1014,8 hPa 0,0 l/m 0,0 km/h O-SO 4,4 C 6,6 C 0,0 km/h
02.04.2016 09:00 7,6 C 87 % 1014,7 hPa 0,0 l/m 0,0 km/h NW 5,6 C 7,6 C 0,0 km/h
02.04.2016 10:00 8,5 C 86 % 1014,6 hPa 0,0 l/m 0,0 km/h N-NO 6,3 C 8,5 C 0,0 km/h
02.04.2016 11:00 9,5 C 84 % 1014,2 hPa 0,0 l/m 0,0 km/h W-NW 6,9 C 9,5 C 0,0 km/h
02.04.2016 12:00 10,6 C 82 % 1014,1 hPa 0,0 l/m 0,0 km/h NW 7,7 C 10,6 C 0,0 km/h
02.04.2016 13:00 12,3 C 78 % 1013,9 hPa 0,0 l/m 0,0 km/h W-NW 8,6 C 12,3 C 0,0 km/h
02.04.2016 14:00 14,1 C 74 % 1013,2 hPa 0,0 l/m 0,0 km/h N-NO 9,5 C 14,1 C 0,0 km/h
02.04.2016 15:00 15,1 C 69 % 1012,7 hPa 0,0 l/m 1,3 km/h N-NO 9,5 C 15,1 C 0,7 km/h
02.04.2016 16:00 14,7 C 71 % 1011,8 hPa 0,0 l/m 0,0 km/h NW 9,5 C 14,7 C 0,0 km/h
02.04.2016 17:00 17,1 C 62 % 1011,0 hPa 0,0 l/m 0,0 km/h NW 9,8 C 17,1 C 0,0 km/h
02.04.2016 18:00 12,9 C 75 % 1010,7 hPa 0,0 l/m 2,6 km/h NW 8,6 C 12,9 C 1,4 km/h
02.04.2016 19:00 11,1 C 79 % 1010,6 hPa 0,0 l/m 0,0 km/h NW 7,6 C 11,1 C 0,0 km/h
02.04.2016 20:00 9,2 C 82 % 1010,7 hPa 0,0 l/m 0,0 km/h NW 6,3 C 9,2 C 0,0 km/h
02.04.2016 21:00 8,4 C 85 % 1011,1 hPa 0,0 l/m 0,0 km/h NW 6,0 C 8,4 C 0,0 km/h
02.04.2016 22:00 8,1 C 86 % 1010,8 hPa 0,0 l/m 0,0 km/h NW 5,9 C 8,1 C 0,0 km/h
02.04.2016 23:00 7,9 C 87 % 1010,6 hPa 0,0 l/m 0,0 km/h NW 5,9 C 7,9 C 0,0 km/h
03.04.2016 00:00 7,6 C 87 % 1010,8 hPa 0,0 l/m 0,0 km/h NW 5,6 C 7,6 C 0,0 km/h
03.04.2016 01:00 7,6 C 87 % 1010,9 hPa 0,0 l/m 0,0 km/h NW 5,6 C 7,6 C 0,0 km/h
03.04.2016 02:00 7,4 C 87 % 1011,4 hPa 0,0 l/m 0,0 km/h O-SO 5,4 C 7,4 C 0,0 km/h
03.04.2016 03:00 7,9 C 87 % 1010,3 hPa 0,0 l/m 1,3 km/h O-NO 5,9 C 7,9 C 0,7 km/h
03.04.2016 04:00 7,9 C 86 % 1010,9 hPa 0,0 l/m 0,0 km/h SO 5,7 C 7,9 C 0,0 km/h
03.04.2016 05:00 7,9 C 86 % 1010,4 hPa 0,0 l/m 0,0 km/h SO 5,7 C 7,9 C 0,0 km/h
03.04.2016 06:00 7,0 C 86 % 1010,5 hPa 0,0 l/m 0,0 km/h SO 4,8 C 7,0 C 0,0 km/h
03.04.2016 07:00 7,5 C 85 % 1011,2 hPa 0,0 l/m 0,0 km/h SO 5,1 C 7,5 C 0,0 km/h
03.04.2016 08:00 9,5 C 80 % 1011,4 hPa 0,0 l/m 0,0 km/h SO 6,2 C 9,5 C 0,0 km/h
03.04.2016 09:00 15,0 C 85 % 1011,8 hPa 0,0 l/m 0,0 km/h SO 12,5 C 15,0 C 0,0 km/h
03.04.2016 10:00 16,6 C 77 % 1011,0 hPa 0,0 l/m 0,0 km/h N-NW 12,5 C 16,6 C 0,0 km/h
03.04.2016 11:00 20,4 C 62 % 1010,5 hPa 0,0 l/m 0,0 km/h W-NW 12,9 C 20,4 C 0,0 km/h
03.04.2016 12:00 20,6 C 62 % 1010,0 hPa 0,4 l/m 3,2 km/h NW 13,1 C 20,6 C 1,8 km/h
03.04.2016 13:00 21,4 C 59 % 1009,3 hPa 0,0 l/m 10,4 km/h NW 13,0 C 20,1 C 5,8 km/h
03.04.2016 14:00 20,8 C 60 % 1008,6 hPa 0,0 l/m 2,6 km/h NW 12,7 C 20,8 C 1,4 km/h
03.04.2016 15:00 22,4 C 57 % 1008,4 hPa 0,0 l/m 6,5 km/h W-NW 13,5 C 22,4 C 3,6 km/h
03.04.2016 16:00 20,8 C 59 % 1007,8 hPa 0,0 l/m 1,3 km/h W-NW 12,5 C 20,8 C 0,7 km/h
03.04.2016 17:00 18,6 C 65 % 1007,3 hPa 0,0 l/m 1,3 km/h NW 11,9 C 18,6 C 0,7 km/h
03.04.2016 18:00 17,4 C 70 % 1007,2 hPa 0,0 l/m 0,0 km/h NW 11,9 C 17,4 C 0,0 km/h
03.04.2016 19:00 15,9 C 72 % 1007,4 hPa 0,0 l/m 0,0 km/h NW 10,9 C 15,9 C 0,0 km/h
03.04.2016 20:00 13,6 C 77 % 1007,1 hPa 0,0 l/m 0,0 km/h NW 9,6 C 13,6 C 0,0 km/h
03.04.2016 21:00 12,9 C 81 % 1007,2 hPa 0,0 l/m 0,0 km/h NW 9,7 C 12,9 C 0,0 km/h
03.04.2016 22:00 12,4 C 84 % 1007,0 hPa 0,0 l/m 0,0 km/h NW 9,8 C 12,4 C 0,0 km/h
03.04.2016 23:00 11,6 C 85 % 1007,1 hPa 0,0 l/m 0,0 km/h NW 9,2 C 11,6 C 0,0 km/h
Min-Datum _ 28.03.16 29.03.16 28.03.16 - 28.03.16 - 28.03.16 28.03.16 28.03.16
_ Min-Zeit 06:41 16:41 17:41 - 00:41 - 06:41 03:41 00:41
Minimum _ 1,9 C 45 % 1001,5 hPa - 0,0 km/h - -0,2 C -1,8 C 0,0 km/h
Max-Datum _ 03.04.16 01.04.16 02.04.16 30.03.16 28.03.16 - 31.03.16 03.04.16 28.03.16
_ Max-Zeit 15:41 11:41 00:41 15:41 19:41 - 17:41 15:41 19:41
Maximum _ 22,4 C 88 % 1017,3 hPa 1,7 l/m 39,5 km/h
N
- 14,9 C 22,4 C 22,0 km/h
N
Durchschnitt _ 10,8 C 77 % 1009,6 hPa #5,8 l/m 4,2 km/h W-NW 6,7 C 9,8 C 2,3 km/h
www.sexauwetter.de